Time;durP1;ratioP1;P1;durP2;ratioP2;P2;SDS_P1;SDS_P2;PMS_P1;PMS_P2;Temp;Humidity;BMP_temperature;BMP_pressure;BME280_temperature;BME280_humidity;BME280_pressure;Samples;Min_cycle;Max_cycle;Signal;HPM_P1;HPM_P2
2022/10/14 00:00:41;;;;;;;64.35;47.92;;;12.20;99.90;;;;;;5016512;28;38214;-83
2022/10/14 00:03:13;;;;;;;84.93;52.10;;;12.30;99.90;;;;;;5001269;28;39085;-82
2022/10/14 00:05:40;;;;;;;123.20;64.45;;;12.30;99.90;;;;;;5001773;28;37937;-82
2022/10/14 00:08:07;;;;;;;74.20;51.05;;;12.30;99.90;;;;;;4997740;28;37648;-82
2022/10/14 00:10:37;;;;;;;78.15;52.30;;;12.40;99.90;;;;;;5002014;28;38231;-82
2022/10/14 00:13:04;;;;;;;71.05;48.25;;;12.40;99.90;;;;;;5018028;28;38963;-83
2022/10/14 00:15:37;;;;;;;73.72;48.60;;;12.50;99.90;;;;;;5013046;28;40344;-82
2022/10/14 00:18:18;;;;;;;;;;;12.50;99.90;;;;;;5016085;28;39605;-83
2022/10/14 00:21:04;;;;;;;177.32;75.30;;;12.50;99.90;;;;;;5018252;28;38373;-83
2022/10/14 00:23:30;;;;;;;141.15;67.53;;;12.50;99.90;;;;;;5016043;28;49152;-83
2022/10/14 00:26:50;;;;;;;68.50;49.45;;;12.60;99.90;;;;;;4997290;28;38854;-84
2022/10/14 00:29:40;;;;;;;76.55;52.40;;;12.60;99.90;;;;;;5008224;28;50291;-82
2022/10/14 00:32:26;;;;;;;72.68;49.05;;;12.60;99.90;;;;;;5011126;23;37923;-81
2022/10/14 00:35:21;;;;;;;85.88;52.53;;;12.60;99.90;;;;;;4998472;28;38963;-82
2022/10/14 00:38:12;;;;;;;79.53;51.75;;;12.70;99.90;;;;;;4984348;28;50073;-81
2022/10/14 00:40:51;;;;;;;86.70;51.65;;;12.70;99.90;;;;;;4981145;28;50022;-81
2022/10/14 00:43:21;;;;;;;70.88;47.50;;;12.70;99.90;;;;;;4948629;28;38583;-82
2022/10/14 00:45:57;;;;;;;99.00;57.88;;;12.70;99.90;;;;;;4963961;28;37943;-82
2022/10/14 00:51:01;;;;;;;106.93;60.90;;;12.70;99.90;;;;;;5579037;23;20047;-82
2022/10/14 00:53:41;;;;;;;117.03;59.28;;;12.70;99.90;;;;;;5015864;28;39784;-82
2022/10/14 00:56:09;;;;;;;103.30;57.60;;;12.70;99.90;;;;;;5009915;28;37669;-82
2022/10/14 00:58:46;;;;;;;185.20;78.72;;;12.70;99.90;;;;;;5016840;28;40077;-82
2022/10/14 01:03:49;;;;;;;95.50;53.50;;;12.80;99.90;;;;;;5064585;23;20058;-78
2022/10/14 01:06:33;;;;;;;110.30;60.33;;;12.80;99.90;;;;;;4983669;28;37534;-79
2022/10/14 01:09:02;;;;;;;197.63;79.20;;;12.90;99.90;;;;;;5009612;28;39046;-79
2022/10/14 01:11:47;;;;;;;141.38;69.18;;;12.90;99.90;;;;;;4980443;28;47193;-79
2022/10/14 01:14:37;;;;;;;158.07;69.30;;;12.90;99.90;;;;;;4989935;28;37795;-79
2022/10/14 01:17:15;;;;;;;140.75;70.20;;;12.90;99.90;;;;;;5005198;28;37900;-79
2022/10/14 01:20:06;;;;;;;228.35;89.57;;;12.90;99.90;;;;;;5003324;28;39615;-78
2022/10/14 01:22:45;;;;;;;129.50;67.55;;;13.00;99.90;;;;;;5006588;28;48746;-79
2022/10/14 01:25:24;;;;;;;183.15;76.38;;;13.00;99.90;;;;;;5002293;28;37439;-79
2022/10/14 01:28:02;;;;;;;134.10;68.03;;;13.00;99.90;;;;;;5006977;28;37611;-79
2022/10/14 01:30:33;;;;;;;114.38;60.75;;;13.00;99.90;;;;;;5006248;28;48269;-78
2022/10/14 01:33:22;;;;;;;100.43;57.58;;;13.10;99.90;;;;;;4996376;28;38230;-78
2022/10/14 01:35:48;;;;;;;95.50;55.42;;;13.10;99.90;;;;;;4975465;28;47097;-77
2022/10/14 01:38:33;;;;;;;150.50;68.75;;;13.10;99.90;;;;;;5003471;28;37141;-78
2022/10/14 01:41:12;;;;;;;125.80;62.97;;;13.10;99.90;;;;;;5002402;28;38174;-79
2022/10/14 01:43:39;;;;;;;99.38;57.38;;;13.10;99.90;;;;;;4997420;28;47032;-78
2022/10/14 01:46:07;;;;;;;119.22;61.75;;;13.10;99.90;;;;;;5004817;28;37823;-79
2022/10/14 01:48:36;;;;;;;117.22;61.35;;;13.10;99.90;;;;;;5003914;28;38578;-80
2022/10/14 01:51:08;;;;;;;140.05;65.93;;;13.20;99.90;;;;;;4982337;28;37916;-79
2022/10/14 01:53:40;;;;;;;198.38;76.40;;;13.20;99.90;;;;;;5001655;28;48591;-81
2022/10/14 01:56:09;;;;;;;189.52;74.13;;;13.20;99.90;;;;;;4999292;28;39331;-81
2022/10/14 01:58:36;;;;;;;246.07;85.93;;;13.20;99.90;;;;;;4991723;28;36595;-80
2022/10/14 02:01:05;;;;;;;124.80;61.67;;;13.20;99.90;;;;;;4998064;28;38938;-81
2022/10/14 02:03:45;;;;;;;186.63;76.75;;;13.20;99.90;;;;;;4999661;28;47688;-81
2022/10/14 02:06:35;;;;;;;234.25;83.40;;;13.10;99.90;;;;;;5004574;28;38309;-80
2022/10/14 02:09:10;;;;;;;98.93;56.15;;;13.20;99.90;;;;;;4993583;28;36518;-79
2022/10/14 02:12:02;;;;;;;198.55;78.75;;;13.20;99.90;;;;;;4999124;28;48858;-79
2022/10/14 02:14:42;;;;;;;87.77;52.97;;;13.20;99.90;;;;;;4999667;28;47684;-79
2022/10/14 02:17:23;;;;;;;170.55;71.85;;;13.20;99.90;;;;;;4980449;28;37231;-79
2022/10/14 02:20:27;;;;;;;114.00;58.15;;;13.20;99.90;;;;;;4998528;28;37042;-79
2022/10/14 02:22:59;;;;;;;139.32;63.38;;;13.20;99.90;;;;;;4916058;29;46736;-79
2022/10/14 02:25:33;;;;;;;114.40;58.28;;;13.20;99.90;;;;;;4995512;28;38530;-79
2022/10/14 02:28:02;;;;;;;138.77;64.85;;;13.20;99.90;;;;;;5000326;28;37735;-79
2022/10/14 02:30:31;;;;;;;205.50;75.20;;;13.20;99.90;;;;;;5006839;28;48903;-80
2022/10/14 02:32:59;;;;;;;108.72;60.20;;;13.20;99.90;;;;;;5000638;28;38190;-80
2022/10/14 02:35:27;;;;;;;112.20;57.28;;;13.30;99.90;;;;;;4988554;28;37648;-80
2022/10/14 02:37:56;;;;;;;202.05;72.63;;;13.30;99.90;;;;;;4999807;28;37466;-81
2022/10/14 02:40:32;;;;;;;144.43;63.10;;;13.20;99.90;;;;;;5003995;28;36968;-81
2022/10/14 02:42:58;;;;;;;169.02;67.68;;;13.30;99.90;;;;;;4975829;28;38604;-80
2022/10/14 02:45:28;;;;;;;206.98;75.05;;;13.30;99.90;;;;;;4985045;28;37387;-80
2022/10/14 02:47:54;;;;;;;189.57;70.50;;;13.40;99.90;;;;;;4985703;28;37017;-79
2022/10/14 02:50:21;;;;;;;274.88;84.68;;;13.40;99.90;;;;;;4998855;28;38059;-80
2022/10/14 02:52:47;;;;;;;94.40;54.38;;;13.40;99.90;;;;;;5000346;28;38841;-79
2022/10/14 02:55:13;;;;;;;263.45;83.18;;;13.40;99.90;;;;;;4999096;28;38278;-81
2022/10/14 02:57:39;;;;;;;153.80;64.88;;;13.40;99.90;;;;;;4981511;28;37503;-81
2022/10/14 03:00:06;;;;;;;174.48;70.13;;;13.40;99.90;;;;;;5000906;28;37668;-81
2022/10/14 03:02:32;;;;;;;204.60;73.43;;;13.50;99.90;;;;;;4996202;28;38286;-81
2022/10/14 03:04:58;;;;;;;174.52;68.22;;;13.50;99.90;;;;;;4981163;28;39190;-81
2022/10/14 03:07:24;;;;;;;121.45;56.75;;;13.50;99.90;;;;;;5000519;28;38831;-81
2022/10/14 03:09:51;;;;;;;248.68;78.88;;;13.40;99.90;;;;;;4999135;28;37032;-81
2022/10/14 03:12:17;;;;;;;211.43;72.03;;;13.40;99.90;;;;;;5003755;28;38707;-80
2022/10/14 03:14:44;;;;;;;222.82;75.57;;;13.50;99.90;;;;;;4983538;28;39387;-80
2022/10/14 03:17:10;;;;;;;237.65;74.88;;;13.50;99.90;;;;;;4997944;28;38736;-80
2022/10/14 03:19:36;;;;;;;122.32;58.45;;;13.40;99.90;;;;;;4978380;28;37305;-81
2022/10/14 03:22:02;;;;;;;200.95;72.20;;;13.40;99.90;;;;;;5002388;28;38641;-81
2022/10/14 03:24:28;;;;;;;216.93;72.80;;;13.40;99.90;;;;;;4995644;28;48500;-80
2022/10/14 03:26:54;;;;;;;213.00;72.20;;;13.40;99.90;;;;;;4997740;28;38777;-80
2022/10/14 03:29:21;;;;;;;212.32;71.85;;;13.50;99.90;;;;;;4979217;28;38831;-82
2022/10/14 03:31:47;;;;;;;196.93;69.97;;;13.50;99.90;;;;;;4983069;28;39701;-80
2022/10/14 03:34:13;;;;;;;85.53;50.05;;;13.40;99.90;;;;;;4980960;28;39083;-81
2022/10/14 03:36:39;;;;;;;201.15;72.45;;;13.50;99.90;;;;;;4986660;28;38485;-81
2022/10/14 03:39:05;;;;;;;128.93;59.55;;;13.50;99.90;;;;;;4981158;28;37961;-80
2022/10/14 03:41:31;;;;;;;142.52;60.20;;;13.50;99.90;;;;;;5001117;28;38599;-81
2022/10/14 03:43:57;;;;;;;152.40;62.28;;;13.50;99.90;;;;;;4975279;28;36815;-81
2022/10/14 03:46:25;;;;;;;117.03;55.28;;;13.50;99.90;;;;;;4996242;28;38928;-81
2022/10/14 03:48:52;;;;;;;184.77;65.50;;;13.50;99.90;;;;;;4981164;28;37017;-80
2022/10/14 03:51:18;;;;;;;170.27;61.08;;;13.50;99.90;;;;;;4979013;28;39192;-80
2022/10/14 03:53:44;;;;;;;210.23;68.68;;;13.50;99.90;;;;;;4979104;28;39125;-81
2022/10/14 03:56:11;;;;;;;113.05;51.47;;;13.50;99.90;;;;;;4997150;28;38013;-82
2022/10/14 03:58:37;;;;;;;192.82;65.57;;;13.50;99.90;;;;;;4999063;28;37894;-81
2022/10/14 04:01:03;;;;;;;151.93;56.47;;;13.50;99.90;;;;;;4982452;28;39368;-81
2022/10/14 04:03:29;;;;;;;229.23;69.72;;;13.60;99.90;;;;;;4978131;28;39047;-79
2022/10/14 04:05:55;;;;;;;236.52;70.22;;;13.50;99.90;;;;;;4989230;28;39096;-81
2022/10/14 04:08:22;;;;;;;120.60;55.22;;;13.50;99.90;;;;;;5001084;28;37654;-83
2022/10/14 04:10:52;;;;;;;210.85;65.53;;;13.50;99.90;;;;;;4994105;28;39009;-81
2022/10/14 04:13:19;;;;;;;180.68;62.60;;;13.50;99.90;;;;;;4986068;28;38796;-81
2022/10/14 04:15:45;;;;;;;123.68;54.55;;;13.50;99.90;;;;;;4985950;28;38770;-81
2022/10/14 04:18:11;;;;;;;124.60;54.22;;;13.50;99.90;;;;;;4994551;28;36932;-83
2022/10/14 04:20:38;;;;;;;109.32;50.55;;;13.50;99.90;;;;;;4981953;28;40009;-82
2022/10/14 04:23:04;;;;;;;90.45;45.28;;;13.50;99.90;;;;;;5002504;28;37958;-80
2022/10/14 04:25:31;;;;;;;124.72;49.10;;;13.50;99.90;;;;;;4983988;28;38545;-81
2022/10/14 04:27:57;;;;;;;144.13;54.88;;;13.50;99.90;;;;;;4980268;28;36340;-81
2022/10/14 04:30:23;;;;;;;87.82;45.83;;;13.60;99.90;;;;;;4980955;28;40446;-82
2022/10/14 04:32:49;;;;;;;79.65;42.17;;;13.50;99.90;;;;;;4999728;28;38045;-81
2022/10/14 04:35:15;;;;;;;103.55;46.28;;;13.60;99.90;;;;;;4978685;28;39103;-81
2022/10/14 04:37:41;;;;;;;98.88;48.10;;;13.60;99.90;;;;;;4979996;28;37736;-82
2022/10/14 04:40:08;;;;;;;112.95;47.90;;;13.50;99.90;;;;;;4980471;28;40207;-86
2022/10/14 04:42:34;;;;;;;182.20;56.85;;;13.60;99.90;;;;;;4976681;28;38232;-81
2022/10/14 04:45:00;;;;;;;174.15;54.80;;;13.60;99.90;;;;;;4981314;28;38368;-81
2022/10/14 04:47:26;;;;;;;120.57;47.25;;;13.60;99.90;;;;;;4992121;28;36836;-80
2022/10/14 04:49:52;;;;;;;99.70;44.92;;;13.60;99.90;;;;;;4967620;28;39325;-81
2022/10/14 04:52:19;;;;;;;95.32;44.75;;;13.50;99.90;;;;;;4976921;28;39043;-81
2022/10/14 04:54:45;;;;;;;90.32;42.17;;;13.50;99.90;;;;;;4979978;28;39714;-81
2022/10/14 04:57:11;;;;;;;98.53;43.78;;;13.60;99.90;;;;;;4984042;28;36835;-81
2022/10/14 04:59:37;;;;;;;74.13;38.42;;;13.50;99.90;;;;;;5009098;28;38666;-79
2022/10/14 05:02:05;;;;;;;63.90;36.65;;;13.60;99.90;;;;;;4988443;28;39023;-80
2022/10/14 05:04:31;;;;;;;104.78;43.75;;;13.60;99.90;;;;;;4979552;28;39137;-80
2022/10/14 05:06:58;;;;;;;92.50;40.50;;;13.60;99.90;;;;;;4982043;28;38181;-80
2022/10/14 05:09:24;;;;;;;57.47;34.20;;;13.60;99.90;;;;;;4970311;28;39055;-80
2022/10/14 05:11:50;;;;;;;70.80;37.85;;;13.60;99.90;;;;;;5006461;28;38796;-80
2022/10/14 05:14:17;;;;;;;76.18;37.38;;;13.60;99.90;;;;;;4985173;28;37132;-80
2022/10/14 05:16:43;;;;;;;67.18;36.63;;;13.60;99.90;;;;;;5007202;28;37717;-80
2022/10/14 05:19:09;;;;;;;78.13;38.45;;;13.60;99.90;;;;;;4987683;28;37429;-80
2022/10/14 05:21:35;;;;;;;72.93;37.13;;;13.60;99.90;;;;;;4989531;28;37512;-80
2022/10/14 05:24:01;;;;;;;63.97;35.47;;;13.70;99.90;;;;;;5009862;28;37833;-81
2022/10/14 05:26:27;;;;;;;82.55;36.90;;;13.60;99.90;;;;;;4996914;28;36896;-81
2022/10/14 05:28:53;;;;;;;116.55;43.63;;;13.60;99.90;;;;;;5009907;28;38951;-81
2022/10/14 05:31:19;;;;;;;109.30;42.65;;;13.70;99.90;;;;;;4990897;28;36994;-81
2022/10/14 05:33:45;;;;;;;77.43;37.47;;;13.60;99.90;;;;;;4985391;28;37032;-80
2022/10/14 05:36:14;;;;;;;58.15;32.85;;;13.70;99.90;;;;;;4989914;28;35362;-81
2022/10/14 05:38:40;;;;;;;93.55;37.55;;;13.70;99.90;;;;;;5006201;28;40365;-81
2022/10/14 05:41:06;;;;;;;74.43;34.92;;;13.70;99.90;;;;;;4989497;28;38735;-81
2022/10/14 05:43:32;;;;;;;67.63;35.15;;;13.70;99.90;;;;;;4975145;28;36397;-81
2022/10/14 05:46:00;;;;;;;67.13;33.95;;;13.70;99.90;;;;;;4985603;28;38199;-80
2022/10/14 05:48:26;;;;;;;68.43;34.70;;;13.70;99.90;;;;;;5002649;28;38715;-81
2022/10/14 05:50:55;;;;;;;66.63;34.83;;;13.70;99.90;;;;;;4982072;28;36952;-79
2022/10/14 05:53:29;;;;;;;81.60;37.78;;;13.70;99.90;;;;;;4986291;28;38580;-80
2022/10/14 05:56:06;;;;;;;63.08;34.67;;;13.70;99.90;;;;;;4988184;28;36367;-81
2022/10/14 05:58:33;;;;;;;75.30;36.15;;;13.70;99.90;;;;;;4987552;28;47434;-81
2022/10/14 06:01:00;;;;;;;77.95;35.60;;;13.70;99.90;;;;;;4992402;28;39456;-79
2022/10/14 06:03:27;;;;;;;77.97;36.45;;;13.70;99.90;;;;;;4976163;28;38698;-80
2022/10/14 06:05:53;;;;;;;63.85;34.05;;;13.70;99.90;;;;;;4980014;28;36729;-79
2022/10/14 06:08:21;;;;;;;94.55;40.38;;;13.70;99.90;;;;;;4966908;28;38044;-79
2022/10/14 06:10:47;;;;;;;91.55;39.83;;;13.80;99.90;;;;;;4968993;28;37489;-80
2022/10/14 06:13:13;;;;;;;108.57;42.47;;;13.80;99.90;;;;;;4969744;28;37105;-81
2022/10/14 06:15:39;;;;;;;86.68;40.45;;;13.80;99.90;;;;;;4987842;28;38100;-79
2022/10/14 06:18:05;;;;;;;70.10;38.60;;;13.80;99.90;;;;;;4965096;28;39786;-80
2022/10/14 06:20:32;;;;;;;83.82;39.88;;;13.80;99.90;;;;;;4993592;28;39867;-81
2022/10/14 06:22:58;;;;;;;81.80;39.72;;;13.80;99.90;;;;;;4975387;28;39897;-81
2022/10/14 06:25:25;;;;;;;122.38;45.28;;;13.90;99.90;;;;;;4972682;28;36945;-81
2022/10/14 06:27:51;;;;;;;85.93;40.67;;;13.80;99.90;;;;;;4970172;28;40248;-80
2022/10/14 06:30:17;;;;;;;82.47;39.75;;;13.80;99.90;;;;;;4972906;28;39579;-81
2022/10/14 06:32:43;;;;;;;91.00;41.88;;;13.80;99.90;;;;;;5006798;28;39591;-82
2022/10/14 06:35:10;;;;;;;81.75;40.25;;;13.90;99.90;;;;;;4986415;28;37936;-82
2022/10/14 06:37:36;;;;;;;89.95;42.13;;;13.90;99.90;;;;;;4984395;28;39480;-81
2022/10/14 06:40:03;;;;;;;88.20;40.75;;;13.90;99.90;;;;;;4985361;28;39215;-78
2022/10/14 06:42:29;;;;;;;117.40;44.28;;;13.90;99.90;;;;;;4976007;28;47055;-78
2022/10/14 06:44:55;;;;;;;68.75;36.55;;;13.90;99.90;;;;;;4993054;28;38223;-77
2022/10/14 06:47:22;;;;;;;90.07;39.65;;;13.90;99.90;;;;;;4996109;28;38961;-78
2022/10/14 06:49:48;;;;;;;74.15;38.30;;;13.90;99.90;;;;;;4998359;28;37745;-77
2022/10/14 06:52:14;;;;;;;65.78;36.97;;;13.90;99.90;;;;;;4982528;28;39584;-78
2022/10/14 06:54:40;;;;;;;76.72;37.65;;;13.90;99.90;;;;;;4994367;28;38377;-79
2022/10/14 06:57:06;;;;;;;105.10;42.25;;;13.90;99.90;;;;;;4976172;28;40853;-77
2022/10/14 06:59:32;;;;;;;61.30;34.63;;;14.00;99.90;;;;;;4998309;28;39005;-77
2022/10/14 07:01:58;;;;;;;66.68;35.42;;;14.00;99.90;;;;;;4990673;28;38638;-78
2022/10/14 07:04:24;;;;;;;97.40;41.20;;;14.00;99.90;;;;;;4980734;28;38303;-77
2022/10/14 07:06:50;;;;;;;86.80;41.10;;;14.00;99.90;;;;;;4994498;28;38340;-76
2022/10/14 07:09:17;;;;;;;95.30;41.78;;;14.00;99.90;;;;;;4986038;28;37648;-78
2022/10/14 07:11:43;;;;;;;91.72;40.05;;;14.00;99.90;;;;;;4981928;28;40022;-78
2022/10/14 07:14:09;;;;;;;69.97;35.95;;;14.00;99.90;;;;;;5007704;28;37277;-77
2022/10/14 07:16:36;;;;;;;75.28;38.15;;;14.00;99.90;;;;;;4982400;28;40179;-77
2022/10/14 07:19:02;;;;;;;92.60;41.15;;;14.10;99.90;;;;;;4983946;28;38465;-77
2022/10/14 07:21:29;;;;;;;93.72;41.42;;;14.10;99.90;;;;;;5000182;28;38469;-77
2022/10/14 07:23:55;;;;;;;87.47;41.30;;;14.10;99.90;;;;;;4994925;28;38160;-76
2022/10/14 07:26:21;;;;;;;113.28;45.28;;;14.10;99.90;;;;;;4982292;28;39334;-76
2022/10/14 07:28:47;;;;;;;99.25;44.05;;;14.10;99.90;;;;;;4978428;28;39141;-76
2022/10/14 07:31:14;;;;;;;95.45;44.50;;;14.10;99.90;;;;;;4994528;28;39307;-76
2022/10/14 07:33:40;;;;;;;87.25;41.88;;;14.10;99.90;;;;;;4977894;28;37788;-76
2022/10/14 07:36:12;;;;;;;123.72;47.17;;;14.10;99.90;;;;;;4979210;28;40378;-77
2022/10/14 07:38:38;;;;;;;74.85;39.00;;;14.20;99.90;;;;;;4995477;28;38566;-76
2022/10/14 07:41:15;;;;;;;76.82;39.30;;;14.10;99.90;;;;;;5000706;28;38159;-77
2022/10/14 07:43:47;;;;;;;104.38;40.90;;;14.20;99.90;;;;;;4984768;28;47209;-77
2022/10/14 07:46:15;;;;;;;73.00;36.13;;;14.10;99.90;;;;;;4973634;28;37842;-77
2022/10/14 07:48:41;;;;;;;72.20;36.08;;;14.10;99.90;;;;;;5002458;28;38471;-77
2022/10/14 07:51:08;;;;;;;68.50;36.42;;;14.20;99.90;;;;;;4979764;28;40043;-78
2022/10/14 07:53:35;;;;;;;71.03;35.35;;;14.20;99.90;;;;;;4996918;28;37599;-77
2022/10/14 07:56:02;;;;;;;73.22;36.75;;;14.10;99.90;;;;;;4981473;28;39925;-77
2022/10/14 07:58:30;;;;;;;87.47;38.90;;;14.20;99.90;;;;;;4976904;28;39660;-77
2022/10/14 08:00:57;;;;;;;66.13;36.17;;;14.20;99.90;;;;;;4991961;28;39807;-76
2022/10/14 08:03:24;;;;;;;92.35;38.85;;;14.20;99.90;;;;;;5007081;28;38002;-76
2022/10/14 08:06:01;;;;;;;82.88;39.50;;;14.20;99.90;;;;;;4987903;28;40368;-77
2022/10/14 08:08:27;;;;;;;71.45;35.83;;;14.20;99.90;;;;;;4994558;28;39442;-77
2022/10/14 08:11:06;;;;;;;65.03;33.90;;;14.20;99.90;;;;;;4999171;28;39032;-77
2022/10/14 08:13:33;;;;;;;61.80;35.08;;;14.20;99.90;;;;;;4997587;28;48391;-77
2022/10/14 08:15:59;;;;;;;66.53;33.50;;;14.20;99.90;;;;;;4996375;28;39765;-76
2022/10/14 08:18:25;;;;;;;59.80;34.70;;;14.30;99.90;;;;;;4994197;28;38595;-77
2022/10/14 08:20:52;;;;;;;57.58;31.92;;;14.30;99.90;;;;;;4985405;28;38023;-77
2022/10/14 08:23:21;;;;;;;55.00;32.45;;;14.20;99.90;;;;;;4993514;28;38466;-76
2022/10/14 08:25:48;;;;;;;61.30;33.10;;;14.30;99.90;;;;;;4982188;28;38705;-75
2022/10/14 08:28:15;;;;;;;54.65;31.27;;;14.30;99.90;;;;;;4983506;28;37291;-78
2022/10/14 08:30:43;;;;;;;61.67;32.45;;;14.30;99.90;;;;;;4999114;28;37877;-76
2022/10/14 08:33:11;;;;;;;55.00;30.42;;;14.30;99.90;;;;;;4980607;28;37460;-78
2022/10/14 08:35:40;;;;;;;56.90;32.28;;;14.30;99.90;;;;;;4979312;28;37584;-78
2022/10/14 08:38:07;;;;;;;57.70;32.80;;;14.30;99.90;;;;;;4980825;28;37080;-77
2022/10/14 08:40:55;;;;;;;52.35;32.20;;;14.30;99.90;;;;;;4978380;28;37657;-78
2022/10/14 08:43:35;;;;;;;52.97;31.15;;;14.40;99.90;;;;;;4995695;28;38239;-77
2022/10/14 08:46:23;;;;;;;48.13;29.92;;;14.40;99.90;;;;;;4980626;28;38244;-77
2022/10/14 08:49:02;;;;;;;53.78;31.60;;;14.40;99.90;;;;;;4993876;28;48995;-77
2022/10/14 08:51:30;;;;;;;54.00;32.30;;;14.40;99.90;;;;;;4997026;28;48717;-77
2022/10/14 08:54:05;;;;;;;49.83;31.83;;;14.40;99.90;;;;;;4989865;28;37529;-78
2022/10/14 08:56:34;;;;;;;46.60;31.13;;;14.40;99.90;;;;;;4972445;28;47106;-76
2022/10/14 08:59:09;;;;;;;43.42;30.40;;;14.50;99.90;;;;;;4999059;28;37038;-77
2022/10/14 09:01:57;;;;;;;48.75;30.15;;;14.50;99.90;;;;;;4998179;28;48846;-77
2022/10/14 09:04:23;;;;;;;41.05;27.65;;;14.50;99.90;;;;;;4981685;28;37898;-76
2022/10/14 09:06:52;;;;;;;42.95;28.27;;;14.50;99.90;;;;;;4985966;28;38032;-79
2022/10/14 09:12:31;;;;;;;35.40;24.40;;;14.50;99.90;;;;;;5076962;23;20034;-80
2022/10/14 09:15:19;;;;;;;34.80;24.25;;;14.50;99.90;;;;;;5029699;28;38111;-80
2022/10/14 09:18:02;;;;;;;37.97;24.90;;;14.50;99.90;;;;;;4989578;28;49587;-78
2022/10/14 09:20:29;;;;;;;36.58;24.80;;;14.50;99.90;;;;;;4972854;28;46947;-77
2022/10/14 09:23:16;;;;;;;36.10;24.02;;;14.50;99.90;;;;;;4969067;28;38350;-78
2022/10/14 09:26:10;;;;;;;30.30;22.20;;;14.60;99.90;;;;;;4978532;28;48142;-76
2022/10/14 09:28:43;;;;;;;34.45;23.67;;;14.50;99.90;;;;;;4989128;28;48270;-80
2022/10/14 09:31:11;;;;;;;32.33;21.27;;;14.60;99.90;;;;;;4973351;28;37937;-77
2022/10/14 09:33:38;;;;;;;31.95;22.80;;;14.50;99.90;;;;;;4965890;28;39665;-78
2022/10/14 09:36:13;;;;;;;32.60;22.80;;;14.60;99.90;;;;;;4970911;28;36638;-78
2022/10/14 09:38:39;;;;;;;32.55;22.17;;;14.60;99.90;;;;;;4964758;28;39027;-78
2022/10/14 09:41:12;;;;;;;30.98;21.58;;;14.60;99.90;;;;;;4983808;28;38999;-80
2022/10/14 09:43:59;;;;;;;24.38;19.00;;;14.60;99.90;;;;;;4986487;28;37604;-78
2022/10/14 09:46:25;;;;;;;23.73;18.58;;;14.60;99.90;;;;;;4966808;28;36349;-78
2022/10/14 09:48:52;;;;;;;20.35;16.15;;;14.60;99.90;;;;;;4985934;28;39695;-80
2022/10/14 09:51:20;;;;;;;18.25;15.45;;;14.60;99.90;;;;;;4966819;28;38602;-78
2022/10/14 09:53:52;;;;;;;20.65;16.30;;;14.60;99.90;;;;;;4973933;28;40138;-79
2022/10/14 09:56:33;;;;;;;17.17;14.82;;;14.60;99.90;;;;;;4993449;28;38145;-79
2022/10/14 09:59:01;;;;;;;16.98;13.20;;;14.70;99.90;;;;;;4971645;28;38052;-81
2022/10/14 10:01:39;;;;;;;15.70;13.43;;;14.60;99.90;;;;;;4989759;28;38998;-82
2022/10/14 10:04:32;;;;;;;13.60;12.20;;;14.70;99.90;;;;;;4979435;28;39985;-79
2022/10/14 10:07:04;;;;;;;15.75;13.77;;;14.60;99.90;;;;;;4970530;28;36498;-80
2022/10/14 10:09:31;;;;;;;15.23;13.60;;;14.80;99.90;;;;;;4985090;28;48775;-79
2022/10/14 10:11:57;;;;;;;18.30;14.57;;;14.70;99.90;;;;;;4990236;28;39687;-77
2022/10/14 10:14:31;;;;;;;15.93;14.23;;;14.80;99.90;;;;;;4966435;28;37102;-79
2022/10/14 10:17:06;;;;;;;16.10;13.95;;;14.70;99.90;;;;;;4985100;28;37638;-79
2022/10/14 10:19:38;;;;;;;15.57;13.65;;;14.80;99.90;;;;;;4972605;28;47113;-80
2022/10/14 10:22:25;;;;;;;14.45;12.95;;;14.80;99.90;;;;;;4986167;28;37568;-79
2022/10/14 10:25:11;;;;;;;15.32;12.63;;;14.80;99.90;;;;;;4970728;28;38403;-79
2022/10/14 10:27:44;;;;;;;16.92;14.07;;;14.80;99.90;;;;;;4966278;28;47272;-79
2022/10/14 10:30:16;;;;;;;16.02;13.43;;;14.80;99.90;;;;;;4968603;28;39554;-78
2022/10/14 10:32:49;;;;;;;16.10;13.75;;;14.90;99.90;;;;;;4984773;28;37965;-79
2022/10/14 10:35:47;;;;;;;13.82;12.05;;;14.80;99.90;;;;;;4973287;28;36828;-80
2022/10/14 10:38:42;;;;;;;15.70;13.98;;;14.80;99.90;;;;;;4969875;28;36538;-79
2022/10/14 10:41:43;;;;;;;17.95;14.18;;;14.90;99.90;;;;;;4969387;28;38805;-80
2022/10/14 10:44:11;;;;;;;17.63;15.43;;;14.90;99.90;;;;;;4946142;28;37980;-80
2022/10/14 10:47:15;;;;;;;18.63;15.00;;;15.00;99.90;;;;;;4977290;28;36948;-77
2022/10/14 10:50:16;;;;;;;17.50;14.45;;;15.00;99.90;;;;;;4984229;28;48626;-80
2022/10/14 10:52:55;;;;;;;16.85;14.32;;;15.00;99.90;;;;;;4987956;28;46359;-83
2022/10/14 10:55:34;;;;;;;17.45;14.93;;;15.10;99.90;;;;;;4961550;28;37535;-81
2022/10/14 10:58:16;;;;;;;18.83;15.50;;;15.10;99.90;;;;;;4972552;28;37417;-84
2022/10/14 11:01:01;;;;;;;;;;;15.10;99.90;;;;;;4981462;28;48239;-81
2022/10/14 11:03:46;;;;;;;19.27;16.08;;;15.00;99.90;;;;;;4985135;28;37754;-83
2022/10/14 11:12:31;;;;;;;22.08;16.90;;;15.00;99.90;;;;;;4984190;28;37946;-83
2022/10/14 11:15:33;;;;;;;24.98;17.25;;;15.10;99.90;;;;;;4981325;28;37942;-79
2022/10/14 11:18:04;;;;;;;22.03;16.93;;;15.20;99.90;;;;;;4984536;28;48699;-84
2022/10/14 11:20:42;;;;;;;26.88;18.20;;;15.20;99.90;;;;;;4967291;28;47057;-85
2022/10/14 11:23:42;;;;;;;23.00;17.20;;;15.20;99.90;;;;;;4971858;28;35683;-86
2022/10/14 11:26:29;;;;;;;21.52;15.88;;;15.20;99.90;;;;;;4964893;28;39582;-85
2022/10/14 11:29:20;;;;;;;19.27;14.95;;;15.40;99.90;;;;;;4969740;28;37212;-85
2022/10/14 11:31:52;;;;;;;19.13;14.80;;;15.30;99.90;;;;;;4967910;28;46984;-85
2022/10/14 11:34:41;;;;;;;21.77;16.40;;;15.40;99.90;;;;;;4969979;28;37204;-81
2022/10/14 11:37:19;;;;;;;21.27;15.82;;;15.50;99.90;;;;;;4992803;28;40121;-84
2022/10/14 11:39:50;;;;;;;16.77;14.30;;;15.60;99.90;;;;;;4975921;28;38448;-86
2022/10/14 11:42:56;;;;;;;16.70;11.60;;;15.70;99.90;;;;;;4972356;28;37389;-85
2022/10/14 11:45:27;;;;;;;14.88;11.88;;;15.70;99.90;;;;;;4977210;28;37622;-84
2022/10/14 11:48:03;;;;;;;12.00;10.65;;;15.90;99.90;;;;;;4969283;28;37761;-84
2022/10/14 11:50:39;;;;;;;14.23;11.43;;;15.90;99.90;;;;;;4967033;28;47179;-85
2022/10/14 11:53:22;;;;;;;12.60;10.45;;;16.00;99.90;;;;;;4983770;28;38322;-82
2022/10/14 11:56:01;;;;;;;;;;;15.90;99.90;;;;;;4988156;28;37573;-83
2022/10/14 11:58:30;;;;;;;14.10;10.57;;;16.10;99.90;;;;;;4971629;28;39478;-86
2022/10/14 12:00:59;;;;;;;13.85;10.20;;;16.40;99.90;;;;;;4962952;28;37419;-84
2022/10/14 12:04:19;;;;;;;10.65;9.55;;;16.50;99.90;;;;;;4964889;28;38237;-85
2022/10/14 12:06:51;;;;;;;11.55;10.10;;;16.50;99.90;;;;;;4860265;29;48324;-85
2022/10/14 12:09:20;;;;;;;;;;;16.40;99.90;;;;;;4864031;29;37996;-85
2022/10/14 12:11:55;;;;;;;11.77;9.27;;;16.50;99.90;;;;;;4925344;28;38728;-85
2022/10/14 12:14:55;;;;;;;11.65;9.23;;;16.50;99.90;;;;;;4980954;28;36783;-85
2022/10/14 12:17:31;;;;;;;12.10;10.20;;;16.50;99.90;;;;;;4936929;28;35904;-85
2022/10/14 12:20:01;;;;;;;11.75;10.23;;;16.30;99.90;;;;;;4970222;28;38745;-84
2022/10/14 12:22:30;;;;;;;12.18;10.50;;;16.50;99.90;;;;;;4966397;28;37501;-85
2022/10/14 12:25:03;;;;;;;12.52;10.48;;;16.50;99.90;;;;;;4984866;28;37378;-89
2022/10/14 12:27:30;;;;;;;13.65;10.75;;;16.70;99.90;;;;;;4961209;28;47480;-81
2022/10/14 12:29:57;;;;;;;15.38;10.35;;;16.70;99.90;;;;;;4948250;28;37790;-82
2022/10/14 12:32:30;;;;;;;12.32;9.57;;;16.60;99.90;;;;;;4948927;28;38311;-82
2022/10/14 12:35:00;;;;;;;16.13;9.95;;;16.40;99.90;;;;;;4973742;28;38005;-84
2022/10/14 12:37:36;;;;;;;8.65;6.07;;;16.40;99.90;;;;;;4970271;28;36631;-81
2022/10/14 12:40:04;;;;;;;8.77;5.30;;;16.20;99.90;;;;;;4952783;28;38378;-80
2022/10/14 12:42:34;;;;;;;6.30;5.15;;;16.10;99.90;;;;;;4959687;28;47582;-80
2022/10/14 12:45:13;;;;;;;7.45;5.45;;;16.00;99.90;;;;;;4955616;28;36925;-83
2022/10/14 12:47:39;;;;;;;9.52;5.60;;;16.00;99.90;;;;;;4953345;28;48379;-83
2022/10/14 12:50:14;;;;;;;6.78;5.32;;;16.10;99.90;;;;;;4949462;28;37072;-83
2022/10/14 12:52:59;;;;;;;8.10;6.15;;;16.30;99.90;;;;;;4981323;28;37402;-81
2022/10/14 12:55:27;;;;;;;7.45;6.38;;;16.40;99.90;;;;;;4977027;28;39036;-84
2022/10/14 12:58:00;;;;;;;6.40;5.75;;;16.50;99.90;;;;;;4957608;28;36072;-80
2022/10/14 13:00:30;;;;;;;8.32;5.80;;;16.50;99.90;;;;;;4963168;28;37594;-79
2022/10/14 13:03:02;;;;;;;6.95;5.20;;;16.70;99.90;;;;;;4972709;28;38918;-84
2022/10/14 13:05:34;;;;;;;9.90;5.60;;;16.70;99.90;;;;;;4953879;28;47517;-87